Time;durP1;ratioP1;P1;durP2;ratioP2;P2;SDS_P1;SDS_P2;PMS_P1;PMS_P2;Temp;Humidity;BMP_temperature;BMP_pressure;BME280_temperature;BME280_humidity;BME280_pressure;Samples;Min_cycle;Max_cycle;Signal;HPM_P1;HPM_P2
2022/10/25 05:28:32;;;;;;;7.93;1.55;;;16.20;80.90;;;;;;5534757;23;20615;-75
2022/10/25 05:31:02;;;;;;;24.55;4.50;;;16.30;81.00;;;;;;4866376;29;20447;-73
2022/10/25 05:33:27;;;;;;;12.85;2.60;;;16.30;81.30;;;;;;4882878;29;20127;-77
2022/10/25 05:35:54;;;;;;;14.20;2.88;;;16.40;81.50;;;;;;4882470;29;20123;-75
2022/10/25 05:38:20;;;;;;;14.13;2.78;;;16.40;82.00;;;;;;4883888;29;20414;-75
2022/10/25 05:40:56;;;;;;;18.48;2.65;;;16.40;82.40;;;;;;4882980;29;20132;-75
2022/10/25 05:43:22;;;;;;;13.25;2.80;;;16.50;82.50;;;;;;4866823;29;20049;-78
2022/10/25 05:45:48;;;;;;;15.02;2.60;;;16.60;82.80;;;;;;4882746;29;20053;-78
2022/10/25 05:48:14;;;;;;;15.70;2.10;;;16.60;82.40;;;;;;4882524;29;20089;-79
2022/10/25 05:50:40;;;;;;;13.07;2.63;;;16.70;82.30;;;;;;4882594;29;20056;-77
2022/10/25 05:53:06;;;;;;;18.98;2.55;;;16.60;82.10;;;;;;4880269;29;20045;-79
2022/10/25 05:55:35;;;;;;;10.90;1.85;;;16.70;82.60;;;;;;4881417;29;20049;-80
2022/10/25 05:58:02;;;;;;;11.73;2.60;;;16.70;83.10;;;;;;4882327;29;20061;-76
2022/10/25 06:00:28;;;;;;;13.10;1.55;;;16.80;83.10;;;;;;4882244;29;20099;-77
2022/10/25 06:02:53;;;;;;;14.00;3.28;;;16.80;83.10;;;;;;4865323;29;20056;-76
2022/10/25 06:05:20;;;;;;;13.63;2.88;;;16.80;83.30;;;;;;4880364;29;20470;-78
2022/10/25 06:07:46;;;;;;;11.63;1.92;;;16.80;83.40;;;;;;4866177;29;20335;-77
2022/10/25 06:10:13;;;;;;;14.88;2.97;;;16.80;83.40;;;;;;4866124;29;20120;-79
2022/10/25 06:12:38;;;;;;;17.80;2.53;;;16.90;83.50;;;;;;4866188;29;20124;-79
2022/10/25 06:15:04;;;;;;;11.10;2.55;;;16.80;83.40;;;;;;4881803;29;20061;-83
2022/10/25 06:17:30;;;;;;;13.75;2.50;;;16.90;83.40;;;;;;4881940;29;20590;-80
2022/10/25 06:19:56;;;;;;;15.90;2.63;;;16.90;83.30;;;;;;4850471;29;20132;-82
2022/10/25 06:22:22;;;;;;;14.73;2.05;;;16.90;83.30;;;;;;4850553;29;20406;-80
2022/10/25 06:24:47;;;;;;;10.85;2.30;;;16.90;83.20;;;;;;4865439;29;20489;-82
2022/10/25 06:27:13;;;;;;;11.77;2.22;;;16.90;83.00;;;;;;4882108;29;20045;-80
2022/10/25 06:29:39;;;;;;;13.52;2.55;;;16.90;83.00;;;;;;4865537;29;20530;-81
2022/10/25 06:32:04;;;;;;;10.52;2.45;;;16.90;82.90;;;;;;4882244;29;20060;-81
2022/10/25 06:34:30;;;;;;;10.80;2.10;;;16.90;82.80;;;;;;4865921;29;20045;-80
2022/10/25 06:36:56;;;;;;;8.43;1.73;;;16.90;82.80;;;;;;4881621;29;20093;-82
2022/10/25 06:39:21;;;;;;;9.55;1.90;;;16.90;82.70;;;;;;4850099;29;20351;-81
2022/10/25 06:41:47;;;;;;;11.15;1.85;;;16.90;82.60;;;;;;4881349;29;20071;-80
2022/10/25 06:44:13;;;;;;;11.25;1.85;;;16.90;82.60;;;;;;4881603;29;20072;-79
2022/10/25 06:46:40;;;;;;;9.70;2.42;;;16.90;82.40;;;;;;4881855;29;20124;-81
2022/10/25 06:49:06;;;;;;;8.30;1.88;;;16.90;82.30;;;;;;4881045;29;20476;-82
2022/10/25 06:51:33;;;;;;;9.15;1.55;;;16.90;82.20;;;;;;4864447;29;20052;-81
2022/10/25 06:54:08;;;;;;;9.13;1.63;;;16.90;82.10;;;;;;4865586;29;20064;-82
2022/10/25 06:56:34;;;;;;;8.38;1.92;;;16.90;82.00;;;;;;4881901;29;20056;-80
2022/10/25 06:59:00;;;;;;;6.55;1.95;;;16.90;81.90;;;;;;4881453;29;20041;-83
2022/10/25 07:01:26;;;;;;;6.72;1.58;;;16.90;81.90;;;;;;4881534;29;20049;-80
2022/10/25 07:03:53;;;;;;;16.77;2.35;;;16.90;81.80;;;;;;4881760;29;20053;-81
2022/10/25 07:06:25;;;;;;;5.25;1.50;;;16.90;82.30;;;;;;4865239;29;20052;-80
2022/10/25 07:08:57;;;;;;;7.80;1.65;;;16.90;81.80;;;;;;4881522;29;20366;-79
2022/10/25 07:11:24;;;;;;;7.25;1.83;;;16.90;81.70;;;;;;4881350;29;20120;-81
2022/10/25 07:13:51;;;;;;;8.45;2.17;;;17.00;81.70;;;;;;4864822;29;20068;-79
2022/10/25 07:16:19;;;;;;;7.13;2.25;;;17.00;81.60;;;;;;4881321;29;20057;-79
2022/10/25 07:18:46;;;;;;;6.13;2.03;;;17.00;81.50;;;;;;4882092;29;20052;-76
2022/10/25 07:21:19;;;;;;;7.13;1.75;;;17.00;81.40;;;;;;4881608;29;20060;-78
2022/10/25 07:23:45;;;;;;;8.00;2.22;;;17.00;81.30;;;;;;4881321;29;20049;-77
2022/10/25 07:26:14;;;;;;;6.38;1.98;;;17.00;81.30;;;;;;4881402;29;20068;-77
2022/10/25 07:28:42;;;;;;;6.15;1.77;;;17.00;81.20;;;;;;4864726;29;20053;-79
2022/10/25 07:31:11;;;;;;;8.52;2.15;;;17.00;81.20;;;;;;4881677;29;20053;-77
2022/10/25 07:33:37;;;;;;;4.90;1.48;;;17.00;81.10;;;;;;4881067;29;20064;-80
2022/10/25 07:36:03;;;;;;;6.93;1.75;;;17.00;81.00;;;;;;4864832;29;20044;-80
2022/10/25 07:38:29;;;;;;;7.10;2.30;;;17.00;80.90;;;;;;4881589;29;20478;-78
2022/10/25 07:40:58;;;;;;;11.07;2.75;;;17.00;80.60;;;;;;4864861;29;20064;-78
2022/10/25 07:43:28;;;;;;;10.82;2.72;;;17.00;80.10;;;;;;4865034;29;20049;-76
2022/10/25 07:45:54;;;;;;;8.38;2.60;;;17.00;79.60;;;;;;4881205;29;20060;-77
2022/10/25 07:48:20;;;;;;;9.88;3.40;;;17.00;79.30;;;;;;4881338;29;20049;-78
2022/10/25 07:50:46;;;;;;;9.85;3.53;;;17.00;78.70;;;;;;4880769;29;20462;-74
2022/10/25 07:53:12;;;;;;;12.63;3.78;;;16.90;78.10;;;;;;4881514;29;20041;-76
2022/10/25 07:55:38;;;;;;;13.18;4.00;;;16.90;77.40;;;;;;4881049;29;20056;-75
2022/10/25 07:58:06;;;;;;;11.80;3.60;;;16.90;77.10;;;;;;4881332;29;20049;-77
2022/10/25 08:00:33;;;;;;;11.60;3.70;;;16.80;76.90;;;;;;4864685;29;20477;-76
2022/10/25 08:02:59;;;;;;;19.00;4.15;;;16.70;77.10;;;;;;4880686;29;20061;-79
2022/10/25 08:05:25;;;;;;;10.23;3.42;;;16.60;77.30;;;;;;4880856;29;20391;-76
2022/10/25 08:07:50;;;;;;;12.20;3.88;;;16.60;78.00;;;;;;4881528;29;20056;-77
2022/10/25 08:10:20;;;;;;;10.38;3.53;;;16.60;77.50;;;;;;4850082;29;20060;-77
2022/10/25 08:12:47;;;;;;;12.82;4.07;;;16.50;77.70;;;;;;4881129;29;20045;-77
2022/10/25 08:15:14;;;;;;;13.75;3.05;;;16.50;77.90;;;;;;4880996;29;20049;-76
2022/10/25 08:17:40;;;;;;;11.75;3.38;;;16.50;78.10;;;;;;4880403;29;20044;-78
2022/10/25 08:20:06;;;;;;;10.68;3.05;;;16.50;78.00;;;;;;4864369;29;20359;-77
2022/10/25 08:22:32;;;;;;;11.98;3.25;;;16.50;77.90;;;;;;4881054;29;20057;-78
2022/10/25 08:24:58;;;;;;;11.35;3.42;;;16.50;77.70;;;;;;4881176;29;20461;-75
2022/10/25 08:27:23;;;;;;;12.70;3.20;;;16.50;77.70;;;;;;4880852;29;20099;-80
2022/10/25 08:29:49;;;;;;;11.40;3.80;;;16.40;77.90;;;;;;4880856;29;20097;-79
2022/10/25 08:32:15;;;;;;;11.60;2.90;;;16.30;78.10;;;;;;4880550;29;20443;-79
2022/10/25 08:34:40;;;;;;;14.10;2.95;;;16.30;78.20;;;;;;4880880;29;20060;-78
2022/10/25 08:37:09;;;;;;;16.65;3.20;;;16.20;78.80;;;;;;4880908;29;20064;-78
2022/10/25 08:39:34;;;;;;;13.65;3.03;;;16.20;79.20;;;;;;4864232;29;20053;-78
2022/10/25 08:42:01;;;;;;;12.05;3.10;;;16.20;79.40;;;;;;4881355;29;20060;-77
2022/10/25 08:45:00;;;;;;;9.57;3.00;;;16.30;79.60;;;;;;4880518;29;20049;-79
2022/10/25 08:47:32;;;;;;;6.97;2.45;;;16.30;79.90;;;;;;4868340;29;20129;-78
2022/10/25 08:50:12;;;;;;;12.35;2.65;;;16.40;80.00;;;;;;4853284;29;20061;-79
2022/10/25 08:52:44;;;;;;;8.77;2.45;;;16.40;80.20;;;;;;4883537;29;20120;-79
2022/10/25 08:55:23;;;;;;;13.52;2.97;;;16.40;80.20;;;;;;4867273;29;20132;-76
2022/10/25 08:57:51;;;;;;;8.23;2.55;;;16.50;80.40;;;;;;4883552;29;20491;-77
2022/10/25 09:00:22;;;;;;;8.95;2.65;;;16.50;80.30;;;;;;4883842;29;20088;-79
2022/10/25 09:02:57;;;;;;;11.13;2.67;;;16.60;80.20;;;;;;4883760;29;20056;-77
2022/10/25 09:05:47;;;;;;;11.13;2.47;;;16.60;80.10;;;;;;4867345;29;20041;-78
2022/10/25 09:08:31;;;;;;;8.02;2.33;;;16.60;80.10;;;;;;4866615;29;20105;-79
2022/10/25 09:11:22;;;;;;;15.38;2.63;;;16.60;80.20;;;;;;4865994;29;20242;-79
2022/10/25 09:13:59;;;;;;;9.40;2.38;;;16.60;80.10;;;;;;4865955;29;20534;-81
2022/10/25 09:16:25;;;;;;;12.38;3.50;;;16.70;80.40;;;;;;4866759;29;20052;-80
2022/10/25 09:18:53;;;;;;;12.88;2.72;;;16.60;80.10;;;;;;4882721;29;20373;-79
2022/10/25 09:21:32;;;;;;;11.38;2.45;;;16.70;79.90;;;;;;4883460;29;20411;-79
2022/10/25 09:24:12;;;;;;;9.98;2.10;;;16.70;79.70;;;;;;4866678;29;20177;-78
2022/10/25 09:26:49;;;;;;;11.70;3.00;;;16.70;79.60;;;;;;4882885;29;20045;-78
2022/10/25 09:29:38;;;;;;;12.18;2.20;;;16.70;79.70;;;;;;4866912;29;20087;-78
2022/10/25 09:32:21;;;;;;;10.38;2.40;;;16.70;79.50;;;;;;4883350;29;20111;-80
2022/10/25 09:34:47;;;;;;;9.65;2.05;;;16.70;79.50;;;;;;4883458;29;20140;-79
2022/10/25 09:37:25;;;;;;;14.88;2.53;;;16.80;79.60;;;;;;4867612;29;20049;-79
2022/10/25 09:39:55;;;;;;;6.68;2.28;;;16.80;79.60;;;;;;4883091;29;20060;-79
2022/10/25 09:42:36;;;;;;;8.10;1.88;;;16.80;79.60;;;;;;4883052;29;20049;-80
2022/10/25 09:45:07;;;;;;;8.32;2.10;;;16.80;79.60;;;;;;4883142;29;20040;-79
2022/10/25 09:47:46;;;;;;;9.65;2.15;;;16.80;79.60;;;;;;4882424;29;20189;-80
2022/10/25 09:50:23;;;;;;;11.38;2.72;;;16.80;79.50;;;;;;4853569;29;20052;-79
2022/10/25 09:53:16;;;;;;;10.90;1.95;;;16.90;79.50;;;;;;4866526;29;20045;-78
2022/10/25 09:55:52;;;;;;;16.13;2.40;;;16.80;79.30;;;;;;4882783;29;20048;-77
2022/10/25 09:58:20;;;;;;;12.05;2.15;;;16.90;79.40;;;;;;4881970;29;20104;-79
2022/10/25 10:00:46;;;;;;;15.15;2.47;;;16.90;79.40;;;;;;4882455;29;20055;-78
2022/10/25 10:03:12;;;;;;;6.78;1.63;;;16.90;79.40;;;;;;4865329;29;20060;-78
2022/10/25 10:05:44;;;;;;;11.73;1.83;;;16.90;79.30;;;;;;4882401;29;20041;-77
2022/10/25 10:08:09;;;;;;;12.52;1.98;;;16.90;79.10;;;;;;4882516;29;20194;-79
2022/10/25 10:10:37;;;;;;;12.93;1.85;;;16.90;79.10;;;;;;4882529;29;20128;-75
2022/10/25 10:13:17;;;;;;;7.57;2.08;;;16.90;79.10;;;;;;4865770;29;20045;-77
2022/10/25 10:16:02;;;;;;;9.38;2.28;;;16.90;79.10;;;;;;4882547;29;20053;-77
2022/10/25 10:18:31;;;;;;;7.85;1.48;;;16.90;79.20;;;;;;4882765;29;20139;-75
2022/10/25 10:21:05;;;;;;;11.25;1.80;;;16.90;79.30;;;;;;4882178;29;20163;-77
2022/10/25 10:23:46;;;;;;;7.30;1.50;;;16.90;79.40;;;;;;4882516;29;20366;-76
2022/10/25 10:26:30;;;;;;;6.60;1.70;;;16.90;79.30;;;;;;4850517;29;20193;-77
2022/10/25 10:29:02;;;;;;;;;;;16.90;79.40;;;;;;4882583;29;20065;-74
2022/10/25 10:31:40;;;;;;;5.28;1.73;;;16.90;79.30;;;;;;4881963;29;20249;-77
2022/10/25 10:34:20;;;;;;;7.38;1.50;;;16.90;79.40;;;;;;4865402;29;20482;-80
2022/10/25 10:36:49;;;;;;;5.65;1.45;;;16.90;79.40;;;;;;4882802;29;20049;-79
2022/10/25 10:39:20;;;;;;;5.05;1.20;;;16.90;79.50;;;;;;4881986;29;20033;-78
2022/10/25 10:42:06;;;;;;;4.80;1.50;;;16.90;79.50;;;;;;4881886;29;20041;-80
2022/10/25 10:44:36;;;;;;;6.60;1.50;;;16.90;79.50;;;;;;4881683;29;20450;-76
2022/10/25 10:47:10;;;;;;;4.38;1.27;;;16.90;79.50;;;;;;4849868;29;20072;-76
2022/10/25 10:49:41;;;;;;;6.28;1.33;;;16.90;79.50;;;;;;4881861;29;20459;-75
2022/10/25 10:52:29;;;;;;;10.07;2.17;;;17.00;79.60;;;;;;4881683;29;20521;-77
2022/10/25 10:54:56;;;;;;;8.43;1.35;;;16.90;79.60;;;;;;4881747;29;20055;-78
2022/10/25 10:57:34;;;;;;;7.30;1.75;;;16.90;79.80;;;;;;4881194;29;20053;-77
2022/10/25 11:00:01;;;;;;;5.22;1.50;;;17.00;79.90;;;;;;4881864;29;20045;-72
2022/10/25 11:02:38;;;;;;;8.23;1.63;;;17.00;80.30;;;;;;4881963;29;20363;-77
2022/10/25 11:05:17;;;;;;;5.65;1.20;;;17.00;80.40;;;;;;4882168;29;20374;-72
2022/10/25 11:07:43;;;;;;;6.07;1.88;;;17.00;80.50;;;;;;4865226;29;20065;-75
2022/10/25 11:10:14;;;;;;;5.05;1.73;;;16.90;80.30;;;;;;4880288;29;20158;-74
2022/10/25 11:12:41;;;;;;;8.10;1.77;;;16.90;80.30;;;;;;4881361;29;20363;-73
2022/10/25 11:15:12;;;;;;;7.78;1.30;;;16.90;80.40;;;;;;4881223;29;20053;-74
2022/10/25 11:17:49;;;;;;;5.75;1.17;;;16.90;80.50;;;;;;4881172;29;20048;-73
2022/10/25 11:20:21;;;;;;;8.43;1.50;;;16.90;80.50;;;;;;4881231;29;20128;-75
2022/10/25 11:23:14;;;;;;;4.45;1.13;;;16.90;81.00;;;;;;4864816;29;20065;-73
2022/10/25 11:25:50;;;;;;;6.70;1.13;;;16.90;80.30;;;;;;4881070;29;20095;-75
2022/10/25 11:28:28;;;;;;;5.85;1.33;;;16.90;80.30;;;;;;4881580;29;20080;-72
2022/10/25 11:31:02;;;;;;;4.60;1.10;;;16.90;80.20;;;;;;4881194;29;20057;-73
2022/10/25 11:33:47;;;;;;;4.78;0.80;;;16.90;80.10;;;;;;4880909;29;20053;-73
2022/10/25 11:36:21;;;;;;;6.15;1.50;;;16.90;80.10;;;;;;4881186;29;20088;-75
2022/10/25 11:38:47;;;;;;;6.03;1.00;;;16.90;80.10;;;;;;4881639;29;20084;-74
2022/10/25 11:41:46;;;;;;;6.63;1.60;;;16.90;80.10;;;;;;4881315;29;20084;-74
2022/10/25 11:44:23;;;;;;;4.80;1.33;;;17.00;80.10;;;;;;4864964;29;20057;-73
2022/10/25 11:47:01;;;;;;;4.00;1.40;;;16.90;80.10;;;;;;4881520;29;20378;-77
2022/10/25 11:49:33;;;;;;;7.38;0.85;;;17.00;80.10;;;;;;4864626;29;20061;-73
2022/10/25 11:52:20;;;;;;;9.38;1.60;;;17.00;80.10;;;;;;4881100;29;20048;-74
2022/10/25 11:55:02;;;;;;;8.10;1.23;;;17.00;79.80;;;;;;4880926;29;20378;-76
2022/10/25 11:57:53;;;;;;;7.88;1.33;;;17.00;78.90;;;;;;4881350;29;20052;-72
2022/10/25 12:00:22;;;;;;;8.40;1.40;;;16.90;78.70;;;;;;4880586;29;20061;-72
2022/10/25 12:03:15;;;;;;;7.22;1.23;;;16.90;79.20;;;;;;4880251;29;20045;-73
2022/10/25 12:05:53;;;;;;;7.05;1.20;;;16.90;78.60;;;;;;4881532;29;20088;-72
2022/10/25 12:08:35;;;;;;;7.35;1.13;;;16.90;78.80;;;;;;4881651;29;20048;-72
2022/10/25 12:11:13;;;;;;;5.15;1.13;;;16.90;79.00;;;;;;4881389;29;20132;-71
2022/10/25 12:13:44;;;;;;;5.53;0.70;;;16.90;79.10;;;;;;4880877;29;20144;-73
2022/10/25 12:16:15;;;;;;;4.75;0.88;;;16.90;79.10;;;;;;4881116;29;20101;-72
2022/10/25 12:18:51;;;;;;;3.40;1.10;;;16.90;79.10;;;;;;4880993;29;20067;-72
2022/10/25 12:21:41;;;;;;;2.92;0.90;;;16.90;79.10;;;;;;4882954;29;20057;-72
2022/10/25 12:24:16;;;;;;;4.18;0.88;;;16.90;79.10;;;;;;4884377;29;20048;-73
2022/10/25 12:26:43;;;;;;;7.20;1.10;;;16.90;79.10;;;;;;4884194;29;20131;-72
2022/10/25 12:29:19;;;;;;;7.80;1.35;;;16.90;79.70;;;;;;4883418;29;20160;-73
2022/10/25 12:31:57;;;;;;;5.38;1.35;;;16.90;79.10;;;;;;4874148;29;20128;-73
2022/10/25 12:34:41;;;;;;;6.07;0.75;;;16.90;79.20;;;;;;4883559;29;20045;-75
2022/10/25 12:37:25;;;;;;;11.23;1.48;;;16.90;79.10;;;;;;4884789;29;20053;-74
2022/10/25 12:39:51;;;;;;;14.05;1.95;;;17.00;78.90;;;;;;4884163;29;20136;-74
2022/10/25 12:42:36;;;;;;;8.70;1.20;;;17.00;78.30;;;;;;4884146;29;20052;-72
2022/10/25 12:45:15;;;;;;;8.23;1.58;;;17.00;77.60;;;;;;4883235;29;20060;-73
2022/10/25 12:47:50;;;;;;;7.45;1.20;;;17.00;77.60;;;;;;4883751;29;20119;-73
2022/10/25 12:50:34;;;;;;;11.60;1.20;;;17.00;77.60;;;;;;4884148;29;20137;-72
2022/10/25 12:53:45;;;;;;;7.25;0.98;;;16.90;77.80;;;;;;4884019;29;20060;-73
2022/10/25 12:56:41;;;;;;;9.32;1.20;;;17.00;78.00;;;;;;4883910;29;20080;-72
2022/10/25 12:59:38;;;;;;;7.90;1.33;;;16.90;78.30;;;;;;4867250;29;20145;-74
2022/10/25 13:02:41;;;;;;;10.45;1.38;;;17.00;78.40;;;;;;4883502;29;20477;-74
2022/10/25 13:05:37;;;;;;;11.00;1.30;;;17.00;78.40;;;;;;4883851;29;20072;-78
2022/10/25 13:08:04;;;;;;;11.75;1.38;;;17.00;78.30;;;;;;4883579;29;20144;-75
2022/10/25 13:10:41;;;;;;;6.82;1.20;;;17.00;78.50;;;;;;4881870;29;20048;-73
2022/10/25 13:13:21;;;;;;;8.73;1.80;;;17.00;78.50;;;;;;4881847;29;20041;-76
2022/10/25 13:16:01;;;;;;;15.43;2.17;;;17.00;78.50;;;;;;4866972;29;20053;-75
2022/10/25 13:18:27;;;;;;;10.00;2.03;;;17.10;78.30;;;;;;4883434;29;20117;-79
2022/10/25 13:20:53;;;;;;;5.63;1.25;;;17.10;78.00;;;;;;4883328;29;20057;-78
2022/10/25 13:23:58;;;;;;;10.40;2.33;;;17.10;78.20;;;;;;4866926;29;20049;-74
2022/10/25 13:26:27;;;;;;;10.30;1.98;;;17.10;78.00;;;;;;4883382;29;20053;-72
2022/10/25 13:28:57;;;;;;;9.88;1.67;;;17.20;77.90;;;;;;4882931;29;20075;-76
2022/10/25 13:31:35;;;;;;;10.25;1.90;;;17.20;77.80;;;;;;4882824;29;20065;-76
2022/10/25 13:34:20;;;;;;;10.95;1.83;;;17.20;78.10;;;;;;4882674;29;20122;-75
2022/10/25 13:36:46;;;;;;;15.77;3.47;;;17.20;77.90;;;;;;4883123;29;20049;-73
2022/10/25 13:39:25;;;;;;;12.32;3.05;;;17.20;78.80;;;;;;4883731;29;20049;-71
2022/10/25 13:41:53;;;;;;;9.52;2.75;;;17.30;78.60;;;;;;4866305;29;20132;-75
2022/10/25 13:44:24;;;;;;;18.65;3.78;;;17.30;78.40;;;;;;4883050;29;20480;-69
2022/10/25 13:46:52;;;;;;;13.50;2.40;;;17.20;78.60;;;;;;4882980;29;20097;-76
2022/10/25 13:49:42;;;;;;;11.88;2.92;;;17.30;79.00;;;;;;4883166;29;20080;-78
2022/10/25 13:52:25;;;;;;;16.50;2.22;;;17.40;80.00;;;;;;4869375;29;20190;-82
2022/10/25 13:54:55;;;;;;;10.40;2.00;;;17.40;79.30;;;;;;4866375;29;20037;-78
2022/10/25 13:57:50;;;;;;;9.23;2.05;;;17.40;78.60;;;;;;4866256;29;20811;-77
2022/10/25 14:00:33;;;;;;;8.27;1.90;;;17.40;78.10;;;;;;4882666;29;20052;-77
2022/10/25 14:03:02;;;;;;;10.45;1.35;;;17.40;78.20;;;;;;4882451;29;20049;-78
2022/10/25 14:05:53;;;;;;;13.18;2.28;;;17.30;78.50;;;;;;4866748;29;20056;-77
2022/10/25 14:08:33;;;;;;;9.07;2.22;;;17.30;79.70;;;;;;4866356;29;20475;-77
2022/10/25 14:11:25;;;;;;;8.95;1.80;;;17.40;79.60;;;;;;4866802;29;20053;-78
2022/10/25 14:13:58;;;;;;;6.28;1.83;;;17.40;79.60;;;;;;4882325;29;20096;-77
2022/10/25 14:16:31;;;;;;;7.22;1.38;;;17.40;79.70;;;;;;4866863;29;20450;-78
2022/10/25 14:19:21;;;;;;;4.63;1.15;;;17.40;79.90;;;;;;4883207;29;20060;-77
2022/10/25 14:21:51;;;;;;;7.15;1.42;;;17.40;80.20;;;;;;4882871;29;20053;-78
2022/10/25 14:24:18;;;;;;;5.43;1.35;;;17.50;80.00;;;;;;4865980;29;20053;-79
2022/10/25 14:26:54;;;;;;;6.10;1.52;;;17.50;80.10;;;;;;4865998;29;20063;-78
2022/10/25 14:29:23;;;;;;;4.75;1.60;;;17.50;80.10;;;;;;4881972;29;20069;-78
2022/10/25 14:31:49;;;;;;;7.40;1.33;;;17.50;80.00;;;;;;4881667;29;20109;-77
2022/10/25 14:34:19;;;;;;;8.15;1.50;;;17.50;80.00;;;;;;4882120;29;20081;-78
2022/10/25 14:36:54;;;;;;;5.45;1.40;;;17.50;80.00;;;;;;4866624;29;20064;-78
2022/10/25 14:39:22;;;;;;;6.57;1.50;;;17.50;80.10;;;;;;4865633;29;20053;-77
2022/10/25 14:41:56;;;;;;;5.47;1.63;;;17.50;80.00;;;;;;4865525;29;20141;-78
2022/10/25 14:44:29;;;;;;;8.13;1.60;;;17.50;80.00;;;;;;4849942;29;20057;-79
2022/10/25 14:46:57;;;;;;;4.30;1.05;;;17.50;80.00;;;;;;4881852;29;20537;-77
2022/10/25 14:49:24;;;;;;;8.18;1.25;;;17.50;79.90;;;;;;4865955;29;20096;-77
2022/10/25 14:51:52;;;;;;;4.10;1.10;;;17.50;80.00;;;;;;4882076;29;20080;-77
2022/10/25 14:54:32;;;;;;;5.43;1.48;;;17.50;80.00;;;;;;4881792;29;20053;-77
2022/10/25 14:57:08;;;;;;;6.80;1.10;;;17.50;80.00;;;;;;4881666;29;20465;-79
2022/10/25 14:59:37;;;;;;;5.15;1.23;;;17.50;79.90;;;;;;4881913;29;20056;-77
2022/10/25 15:02:24;;;;;;;4.50;1.20;;;17.50;79.90;;;;;;4881253;29;20049;-79
2022/10/25 15:04:52;;;;;;;4.80;1.45;;;17.50;79.90;;;;;;4881375;29;20546;-77
2022/10/25 15:07:22;;;;;;;3.00;1.35;;;17.50;79.80;;;;;;4881991;29;20045;-77
2022/10/25 15:09:52;;;;;;;5.78;1.00;;;17.50;79.90;;;;;;4881807;29;20407;-79
2022/10/25 15:12:23;;;;;;;3.08;0.63;;;17.50;79.80;;;;;;4881476;29;20057;-77
2022/10/25 15:14:50;;;;;;;3.08;0.70;;;17.50;79.80;;;;;;4865461;29;20054;-78
2022/10/25 15:17:21;;;;;;;4.88;1.23;;;17.50;79.80;;;;;;4881892;29;20049;-77
2022/10/25 15:19:58;;;;;;;5.95;1.70;;;17.50;79.80;;;;;;4881576;29;20045;-77
2022/10/25 15:22:47;;;;;;;9.85;2.00;;;17.50;79.80;;;;;;4881638;29;20367;-74
2022/10/25 15:25:16;;;;;;;11.75;3.15;;;17.50;79.60;;;;;;4881740;29;20080;-79
2022/10/25 15:27:43;;;;;;;9.18;3.67;;;17.50;79.40;;;;;;4881078;29;20076;-74
2022/10/25 15:30:35;;;;;;;11.43;3.60;;;17.50;79.30;;;;;;4880835;29;20394;-75
2022/10/25 15:33:01;;;;;;;14.38;4.70;;;17.50;79.00;;;;;;4881507;29;20074;-73
2022/10/25 15:35:28;;;;;;;9.82;5.88;;;17.50;78.90;;;;;;4881747;29;20056;-72
2022/10/25 15:37:55;;;;;;;14.95;5.75;;;17.40;78.50;;;;;;4881485;29;20335;-71
2022/10/25 15:40:26;;;;;;;8.93;5.18;;;17.40;78.30;;;;;;4880924;29;20411;-75
2022/10/25 15:42:52;;;;;;;8.23;4.82;;;17.40;78.70;;;;;;4881407;29;20057;-71
2022/10/25 15:45:18;;;;;;;10.07;5.25;;;17.30;79.00;;;;;;4881359;29;20053;-74
2022/10/25 15:47:46;;;;;;;11.57;4.50;;;17.30;79.20;;;;;;4881328;29;20056;-70
2022/10/25 15:50:17;;;;;;;12.02;4.53;;;17.30;79.40;;;;;;4849848;29;20075;-71
2022/10/25 15:52:44;;;;;;;16.27;4.80;;;17.30;79.50;;;;;;4881461;29;20053;-71
2022/10/25 15:55:24;;;;;;;12.38;4.75;;;17.30;79.50;;;;;;4881298;29;20466;-71
2022/10/25 15:57:50;;;;;;;13.50;4.47;;;17.30;79.60;;;;;;4885021;29;20044;-72
2022/10/25 16:00:22;;;;;;;12.30;4.45;;;17.30;79.80;;;;;;4884217;29;20047;-72
2022/10/25 16:02:49;;;;;;;21.13;5.47;;;17.30;79.80;;;;;;4884493;29;20049;-71
2022/10/25 16:05:28;;;;;;;19.60;5.32;;;17.30;80.30;;;;;;4884423;29;20495;-73
2022/10/25 16:07:54;;;;;;;18.30;5.32;;;17.30;80.90;;;;;;4884945;29;20136;-71
2022/10/25 16:10:22;;;;;;;18.42;4.90;;;17.30;80.90;;;;;;4884592;29;20053;-72
2022/10/25 16:12:53;;;;;;;14.38;5.13;;;17.30;81.30;;;;;;4884642;29;20095;-72
2022/10/25 16:15:19;;;;;;;12.95;4.90;;;17.30;81.50;;;;;;4884613;29;20063;-76
2022/10/25 16:17:48;;;;;;;18.70;5.40;;;17.40;81.50;;;;;;4884707;29;20354;-76
2022/10/25 16:20:23;;;;;;;14.95;5.43;;;17.40;82.10;;;;;;4883829;29;20053;-74
2022/10/25 16:22:49;;;;;;;13.43;5.50;;;17.40;81.30;;;;;;4884647;29;20092;-72
2022/10/25 16:25:15;;;;;;;14.30;5.28;;;17.40;81.20;;;;;;4884704;29;20056;-74
2022/10/25 16:27:42;;;;;;;16.00;6.00;;;17.40;81.00;;;;;;4884455;29;20053;-72
2022/10/25 16:30:17;;;;;;;13.65;5.50;;;17.40;80.60;;;;;;4883690;29;20448;-73
2022/10/25 16:32:43;;;;;;;11.32;5.70;;;17.40;80.20;;;;;;4868753;29;20057;-71
2022/10/25 16:35:10;;;;;;;11.25;5.00;;;17.30;80.00;;;;;;4884550;29;20059;-78
2022/10/25 16:37:36;;;;;;;9.82;4.65;;;17.40;79.70;;;;;;4882635;29;20048;-76
2022/10/25 16:40:02;;;;;;;19.02;4.78;;;17.30;79.60;;;;;;4882239;29;20049;-76
2022/10/25 16:42:35;;;;;;;10.02;4.68;;;17.40;79.70;;;;;;4882907;29;20115;-76
2022/10/25 16:45:02;;;;;;;10.10;3.95;;;17.40;79.50;;;;;;4883575;29;20125;-75
2022/10/25 16:47:28;;;;;;;14.80;3.85;;;17.30;79.30;;;;;;4883263;29;20454;-74
2022/10/25 16:49:53;;;;;;;13.27;3.70;;;17.40;79.40;;;;;;4884088;29;20141;-75
2022/10/25 16:52:20;;;;;;;10.23;4.10;;;17.30;79.50;;;;;;4884166;29;20076;-74
2022/10/25 16:54:46;;;;;;;15.40;4.32;;;17.40;79.70;;;;;;4884067;29;20373;-74
2022/10/25 16:57:13;;;;;;;15.98;3.78;;;17.40;79.80;;;;;;4883879;29;20052;-75
2022/10/25 16:59:39;;;;;;;11.07;3.75;;;17.40;79.90;;;;;;4883477;29;20128;-77
2022/10/25 17:02:14;;;;;;;12.95;4.00;;;17.40;79.90;;;;;;4883800;29;20049;-74
2022/10/25 17:04:39;;;;;;;12.98;3.83;;;17.40;79.90;;;;;;4884447;29;20140;-74
2022/10/25 17:07:05;;;;;;;12.60;3.80;;;17.40;79.90;;;;;;4883926;29;20048;-73
2022/10/25 17:09:31;;;;;;;14.43;4.28;;;17.40;79.90;;;;;;4883723;29;20087;-71
2022/10/25 17:11:56;;;;;;;9.02;3.53;;;17.40;79.80;;;;;;4883521;29;20137;-74
2022/10/25 17:14:22;;;;;;;11.13;3.42;;;17.40;79.80;;;;;;4883581;29;20116;-75
2022/10/25 17:16:48;;;;;;;10.13;3.25;;;17.40;79.90;;;;;;4883898;29;20469;-74
2022/10/25 17:19:13;;;;;;;8.98;3.40;;;17.40;79.90;;;;;;4883662;29;20078;-77
2022/10/25 17:21:39;;;;;;;13.60;4.15;;;17.40;79.80;;;;;;4883548;29;20048;-76
2022/10/25 17:24:07;;;;;;;10.23;3.67;;;17.40;79.80;;;;;;4883434;29;20120;-75
2022/10/25 17:26:32;;;;;;;13.65;3.53;;;17.40;79.80;;;;;;4883561;29;20447;-75
2022/10/25 17:28:59;;;;;;;9.93;3.75;;;17.40;79.70;;;;;;4882575;29;20060;-75
2022/10/25 17:31:27;;;;;;;11.90;3.50;;;17.50;79.70;;;;;;4882566;29;20098;-77
2022/10/25 17:33:53;;;;;;;9.55;2.97;;;17.50;79.60;;;;;;4883289;29;20447;-76
2022/10/25 17:36:19;;;;;;;7.15;3.22;;;17.50;79.50;;;;;;4883381;29;20048;-76
2022/10/25 17:38:45;;;;;;;7.90;3.00;;;17.50;79.50;;;;;;4882824;29;20056;-74
2022/10/25 17:41:12;;;;;;;7.47;3.20;;;17.50;79.40;;;;;;4883423;29;20152;-76
2022/10/25 17:43:39;;;;;;;7.82;3.05;;;17.50;79.40;;;;;;4882842;29;20465;-77
2022/10/25 17:46:15;;;;;;;5.28;2.30;;;17.50;79.30;;;;;;4851556;29;20099;-75
2022/10/25 17:48:40;;;;;;;6.68;2.80;;;17.50;79.30;;;;;;4882518;29;20085;-75
2022/10/25 17:51:09;;;;;;;7.63;2.88;;;17.50;79.20;;;;;;4881346;29;20481;-75
2022/10/25 17:53:34;;;;;;;6.30;3.03;;;17.50;79.20;;;;;;4881542;29;20060;-75
2022/10/25 17:56:12;;;;;;;14.68;5.45;;;17.50;79.20;;;;;;4882740;29;20049;-72
2022/10/25 18:56:47;;;;;;;8.50;3.22;;;17.10;77.90;;;;;;4875923;29;20053;-73
2022/10/25 18:59:13;;;;;;;8.60;3.63;;;17.10;78.00;;;;;;4880471;29;20048;-74
2022/10/25 19:01:39;;;;;;;9.77;3.20;;;17.10;78.60;;;;;;4881337;29;20076;-71
2022/10/25 19:04:05;;;;;;;4.97;2.90;;;17.20;78.10;;;;;;4881507;29;20057;-71
2022/10/25 19:06:31;;;;;;;7.03;3.38;;;17.20;78.20;;;;;;4882107;29;20052;-70
2022/10/25 19:08:57;;;;;;;6.82;3.17;;;17.20;78.20;;;;;;4881417;29;20132;-77
2022/10/25 19:47:57;;;;;;;5.78;2.33;;;17.20;78.20;;;;;;4916747;23;20072;-73
2022/10/25 19:50:23;;;;;;;5.15;2.30;;;17.20;78.30;;;;;;4862300;29;20145;-74
2022/10/25 19:52:50;;;;;;;5.68;2.58;;;17.20;78.30;;;;;;4862646;29;20126;-74
2022/10/25 19:55:16;;;;;;;7.18;3.10;;;17.20;78.30;;;;;;4862808;29;20049;-74
2022/10/25 19:57:41;;;;;;;4.70;2.70;;;17.20;78.30;;;;;;4862440;29;20050;-74
2022/10/25 20:00:08;;;;;;;5.43;2.47;;;17.20;78.30;;;;;;4862056;29;20125;-74
2022/10/25 20:02:33;;;;;;;6.18;2.63;;;17.20;78.30;;;;;;4861868;29;20056;-74
2022/10/25 20:04:59;;;;;;;5.75;2.42;;;17.20;78.30;;;;;;4862384;29;20136;-74
2022/10/25 20:07:25;;;;;;;5.72;2.90;;;17.20;78.30;;;;;;4862924;29;20119;-74
2022/10/25 20:09:50;;;;;;;6.30;2.70;;;17.20;78.30;;;;;;4862682;29;20057;-75